createdAt,value
2023-05-09T00:00:35.182Z,16.94
2023-05-09T00:01:35.194Z,16.96
2023-05-09T00:02:35.258Z,16.94
2023-05-09T00:03:35.206Z,16.89
2023-05-09T00:04:35.236Z,16.86
2023-05-09T00:05:35.220Z,16.81
2023-05-09T00:06:35.248Z,16.78
2023-05-09T00:07:35.236Z,16.77
2023-05-09T00:08:35.223Z,16.74
2023-05-09T00:09:35.183Z,16.71
2023-05-09T00:11:35.231Z,16.72
2023-05-09T00:12:35.202Z,16.71
2023-05-09T00:13:35.232Z,16.70
2023-05-09T00:14:35.235Z,16.71
2023-05-09T00:16:35.257Z,16.72
2023-05-09T00:17:35.270Z,16.71
2023-05-09T00:18:35.252Z,16.72
2023-05-09T00:19:35.261Z,16.73
2023-05-09T00:20:36.173Z,16.74
2023-05-09T00:21:35.252Z,16.75
2023-05-09T00:22:35.238Z,16.74
2023-05-09T00:24:35.288Z,16.73
2023-05-09T00:26:35.248Z,16.71
2023-05-09T00:27:35.284Z,16.67
2023-05-09T00:28:35.259Z,16.57
2023-05-09T00:29:35.287Z,16.49
2023-05-09T00:30:35.218Z,16.47
2023-05-09T00:31:35.333Z,16.42
2023-05-09T00:32:35.284Z,16.38
2023-05-09T00:34:35.255Z,16.33
2023-05-09T00:35:35.260Z,16.20
2023-05-09T00:36:35.315Z,16.15
2023-05-09T00:37:35.300Z,16.10
2023-05-09T00:38:35.247Z,15.98
2023-05-09T00:39:35.300Z,15.93
2023-05-09T00:40:35.335Z,15.89
2023-05-09T00:41:35.327Z,15.88
2023-05-09T00:42:35.288Z,15.92
2023-05-09T00:43:35.280Z,15.97
2023-05-09T00:44:35.325Z,16.01
2023-05-09T00:45:35.343Z,16.06
2023-05-09T00:46:35.420Z,16.11
2023-05-09T00:47:35.322Z,16.16
2023-05-09T00:48:35.261Z,16.19
2023-05-09T00:49:35.319Z,16.23
2023-05-09T00:50:35.352Z,16.27
2023-05-09T00:52:35.314Z,16.30
2023-05-09T00:53:35.332Z,16.34
2023-05-09T00:54:35.347Z,16.36
2023-05-09T00:55:35.348Z,16.40
2023-05-09T00:56:35.291Z,16.43
2023-05-09T00:57:36.535Z,16.46
2023-05-09T00:59:35.328Z,16.51
2023-05-09T01:00:35.358Z,16.54
2023-05-09T01:01:35.427Z,16.56
2023-05-09T01:02:35.413Z,16.58
2023-05-09T01:03:35.603Z,16.59
2023-05-09T01:05:35.383Z,16.61
2023-05-09T01:08:35.355Z,16.48
2023-05-09T01:09:35.334Z,16.38
2023-05-09T01:10:35.391Z,16.32
2023-05-09T01:11:35.382Z,16.33
2023-05-09T01:12:35.327Z,16.24
2023-05-09T01:13:35.373Z,16.19
2023-05-09T01:14:35.391Z,16.15
2023-05-09T01:16:35.389Z,16.16
2023-05-09T01:17:35.399Z,16.21
2023-05-09T01:18:35.412Z,16.26
2023-05-09T01:19:35.413Z,16.29
2023-05-09T01:20:35.382Z,16.33
2023-05-09T01:21:35.394Z,16.37
2023-05-09T01:22:35.398Z,16.38
2023-05-09T01:23:35.383Z,16.41
2023-05-09T01:24:35.449Z,16.40
2023-05-09T01:25:35.415Z,16.36
2023-05-09T01:26:35.417Z,16.31
2023-05-09T01:27:35.350Z,16.28
2023-05-09T01:28:35.423Z,16.23
2023-05-09T01:29:35.412Z,16.20
2023-05-09T01:30:35.375Z,16.15
2023-05-09T01:32:35.467Z,16.18
2023-05-09T01:34:36.809Z,16.17
2023-05-09T01:37:35.418Z,16.18
2023-05-09T01:38:35.462Z,16.19
2023-05-09T01:40:35.439Z,16.20
2023-05-09T01:42:35.454Z,16.21
2023-05-09T01:43:35.417Z,16.22
2023-05-09T01:45:35.496Z,16.20
2023-05-09T01:46:35.514Z,16.11
2023-05-09T01:47:35.496Z,16.02
2023-05-09T01:48:35.423Z,16.00
2023-05-09T01:49:35.480Z,15.98
2023-05-09T01:50:35.470Z,16.00
2023-05-09T01:51:35.481Z,15.94
2023-05-09T01:52:35.477Z,15.87
2023-05-09T01:53:35.445Z,15.82
2023-05-09T01:54:35.492Z,15.79
2023-05-09T01:55:35.544Z,15.76
2023-05-09T01:56:35.460Z,15.74
2023-05-09T01:58:35.469Z,15.76
2023-05-09T01:59:35.589Z,15.78
2023-05-09T02:00:35.501Z,15.81
2023-05-09T02:01:35.525Z,15.82
2023-05-09T02:02:35.571Z,15.86
2023-05-09T02:03:35.492Z,15.87
2023-05-09T02:04:35.513Z,15.89
2023-05-09T02:05:35.506Z,15.85
2023-05-09T02:06:35.499Z,15.83
2023-05-09T02:08:35.541Z,15.84
2023-05-09T02:11:37.082Z,15.86
2023-05-09T02:12:35.535Z,15.87
2023-05-09T02:13:35.538Z,15.85
2023-05-09T02:14:35.506Z,15.81
2023-05-09T02:15:35.518Z,15.72
2023-05-09T02:16:35.562Z,15.61
2023-05-09T02:17:35.575Z,15.54
2023-05-09T02:18:35.529Z,15.52
2023-05-09T02:19:35.625Z,15.51
2023-05-09T02:20:35.506Z,15.53
2023-05-09T02:21:35.551Z,15.54
2023-05-09T02:22:35.546Z,15.56
2023-05-09T02:23:35.539Z,15.54
2023-05-09T02:24:35.545Z,15.53
2023-05-09T02:25:35.559Z,15.54
2023-05-09T02:26:35.645Z,15.53
2023-05-09T02:29:35.599Z,15.52
2023-05-09T02:30:35.568Z,15.51
2023-05-09T02:31:35.614Z,15.50
2023-05-09T02:32:35.545Z,15.49
2023-05-09T02:34:35.586Z,15.52
2023-05-09T02:35:35.570Z,15.54
2023-05-09T02:36:35.594Z,15.56
2023-05-09T02:37:35.571Z,15.55
2023-05-09T02:38:35.639Z,15.51
2023-05-09T02:39:35.656Z,15.49
2023-05-09T02:40:35.560Z,15.48
2023-05-09T02:41:35.593Z,15.45
2023-05-09T02:42:35.613Z,15.41
2023-05-09T02:43:35.594Z,15.38
2023-05-09T02:44:35.664Z,15.37
2023-05-09T02:45:35.602Z,15.34
2023-05-09T02:46:35.693Z,15.36
2023-05-09T02:47:35.676Z,15.37
2023-05-09T02:48:37.382Z,15.41
2023-05-09T02:49:35.593Z,15.42
2023-05-09T02:50:35.628Z,15.41
2023-05-09T02:51:35.647Z,15.44
2023-05-09T02:52:35.735Z,15.46
2023-05-09T02:53:35.614Z,15.49
2023-05-09T02:54:35.637Z,15.51
2023-05-09T02:55:35.617Z,15.55
2023-05-09T02:56:35.635Z,15.56
2023-05-09T02:57:35.623Z,15.54
2023-05-09T02:59:35.702Z,15.53
2023-05-09T03:00:35.654Z,15.54
2023-05-09T03:02:35.769Z,15.56
2023-05-09T03:03:35.742Z,15.59
2023-05-09T03:04:35.704Z,15.60
2023-05-09T03:07:35.693Z,15.62
2023-05-09T03:09:35.654Z,15.59
2023-05-09T03:10:35.672Z,15.58
2023-05-09T03:11:35.636Z,15.59
2023-05-09T03:13:35.655Z,15.57
2023-05-09T03:14:35.669Z,15.58
2023-05-09T03:15:35.722Z,15.61
2023-05-09T03:16:35.670Z,15.63
2023-05-09T03:17:35.809Z,15.62
2023-05-09T03:18:35.727Z,15.63
2023-05-09T03:19:35.654Z,15.64
2023-05-09T03:21:35.758Z,15.62
2023-05-09T03:24:35.748Z,15.61
2023-05-09T03:25:37.742Z,15.59
2023-05-09T03:29:35.750Z,15.61
2023-05-09T03:30:35.719Z,15.64
2023-05-09T03:31:35.783Z,15.67
2023-05-09T03:32:35.779Z,15.71
2023-05-09T03:33:35.682Z,15.74
2023-05-09T03:34:35.759Z,15.76
2023-05-09T03:35:35.771Z,15.80
2023-05-09T03:37:35.720Z,15.83
2023-05-09T03:38:35.773Z,15.86
2023-05-09T03:40:35.780Z,15.87
2023-05-09T03:41:35.782Z,15.86
2023-05-09T03:42:35.715Z,15.85
2023-05-09T03:43:35.788Z,15.82
2023-05-09T03:44:35.796Z,15.83
2023-05-09T03:46:35.814Z,15.85
2023-05-09T03:47:35.778Z,15.87
2023-05-09T03:48:35.793Z,15.88
2023-05-09T03:49:35.799Z,15.89
2023-05-09T03:50:35.794Z,15.90
2023-05-09T03:51:35.791Z,15.92
2023-05-09T03:52:35.804Z,15.95
2023-05-09T03:53:35.805Z,15.97
2023-05-09T03:54:35.815Z,15.99
2023-05-09T03:55:35.798Z,16.02
2023-05-09T03:56:35.820Z,16.03
2023-05-09T03:57:35.800Z,16.05
2023-05-09T03:58:35.759Z,16.08
2023-05-09T03:59:35.865Z,16.10
2023-05-09T04:00:35.862Z,16.08
2023-05-09T04:01:36.887Z,16.10
2023-05-09T04:03:35.871Z,16.11
2023-05-09T04:04:35.826Z,16.14
2023-05-09T04:06:35.832Z,16.16
2023-05-09T04:07:35.844Z,16.17
2023-05-09T04:10:35.842Z,16.18
2023-05-09T04:11:35.853Z,16.20
2023-05-09T04:12:35.913Z,16.19
2023-05-09T04:13:35.839Z,16.18
2023-05-09T04:14:35.874Z,16.15
2023-05-09T04:15:35.852Z,16.16
2023-05-09T04:16:35.839Z,16.18
2023-05-09T04:17:35.888Z,16.21
2023-05-09T04:21:35.863Z,16.22
2023-05-09T04:22:35.834Z,16.23
2023-05-09T04:23:35.847Z,16.25
2023-05-09T04:24:35.862Z,16.27
2023-05-09T04:25:35.859Z,16.29
2023-05-09T04:26:35.911Z,16.30
2023-05-09T04:27:35.894Z,16.32
2023-05-09T04:28:35.873Z,16.33
2023-05-09T04:29:35.857Z,16.34
2023-05-09T04:30:35.866Z,16.32
2023-05-09T04:31:35.952Z,16.29
2023-05-09T04:32:36.010Z,16.26
2023-05-09T04:33:35.874Z,16.27
2023-05-09T04:34:35.875Z,16.26
2023-05-09T04:35:35.921Z,16.23
2023-05-09T04:36:35.917Z,16.22
2023-05-09T04:37:35.869Z,16.23
2023-05-09T04:39:38.315Z,16.22
2023-05-09T04:40:35.938Z,16.21
2023-05-09T04:41:35.968Z,16.20
2023-05-09T04:43:35.951Z,16.18
2023-05-09T04:44:35.913Z,16.19
2023-05-09T04:45:35.998Z,16.20
2023-05-09T04:46:35.991Z,16.24
2023-05-09T04:47:35.959Z,16.27
2023-05-09T04:48:35.957Z,16.28
2023-05-09T04:53:35.954Z,16.26
2023-05-09T04:54:35.958Z,16.25
2023-05-09T04:55:35.909Z,16.28
2023-05-09T04:56:35.963Z,16.31
2023-05-09T04:57:35.947Z,16.34
2023-05-09T04:58:35.984Z,16.37
2023-05-09T04:59:35.972Z,16.40
2023-05-09T05:00:35.919Z,16.42
2023-05-09T05:01:36.008Z,16.44
2023-05-09T05:02:36.004Z,16.47
2023-05-09T05:03:36.041Z,16.50
2023-05-09T05:04:36.066Z,16.52
2023-05-09T05:05:37.514Z,16.53
2023-05-09T05:06:35.997Z,16.55
2023-05-09T05:07:36.034Z,16.56
2023-05-09T05:08:35.945Z,16.58
2023-05-09T05:09:35.990Z,16.60
2023-05-09T05:10:36.012Z,16.59
2023-05-09T05:11:36.001Z,16.60
2023-05-09T05:12:36.003Z,16.62
2023-05-09T05:13:36.000Z,16.63
2023-05-09T05:14:36.003Z,16.64
2023-05-09T05:15:35.993Z,16.65
2023-05-09T05:16:38.686Z,16.66
2023-05-09T05:17:36.123Z,16.68
2023-05-09T05:18:36.010Z,16.71
2023-05-09T05:19:36.060Z,16.70
2023-05-09T05:21:36.005Z,16.72
2023-05-09T05:23:36.069Z,16.71
2023-05-09T05:29:36.070Z,16.72
2023-05-09T05:30:36.045Z,16.73
2023-05-09T05:31:36.060Z,16.72
2023-05-09T05:32:36.120Z,16.73
2023-05-09T05:33:36.086Z,16.71
2023-05-09T05:34:36.050Z,16.69
2023-05-09T05:35:36.117Z,16.65
2023-05-09T05:37:36.043Z,16.64
2023-05-09T05:38:36.080Z,16.65
2023-05-09T05:39:36.035Z,16.68
2023-05-09T05:40:36.090Z,16.69
2023-05-09T05:41:36.120Z,16.72
2023-05-09T05:42:36.014Z,16.73
2023-05-09T05:44:36.060Z,16.76
2023-05-09T05:45:36.133Z,16.78
2023-05-09T05:46:36.099Z,16.81
2023-05-09T05:48:36.080Z,16.82
2023-05-09T05:49:36.085Z,16.81
2023-05-09T05:52:36.074Z,16.82
2023-05-09T05:53:38.977Z,16.85
2023-05-09T05:54:36.154Z,16.87
2023-05-09T05:56:36.121Z,16.85
2023-05-09T05:57:36.093Z,16.84
2023-05-09T05:59:36.146Z,16.85
2023-05-09T06:00:36.063Z,16.87
2023-05-09T06:01:36.132Z,16.88
2023-05-09T06:02:36.251Z,16.89
2023-05-09T06:03:36.192Z,16.90
2023-05-09T06:04:36.105Z,16.92
2023-05-09T06:05:36.092Z,16.93
2023-05-09T06:06:36.112Z,16.94
2023-05-09T06:07:36.174Z,16.95
2023-05-09T06:08:36.237Z,16.94
2023-05-09T06:09:36.188Z,16.93
2023-05-09T06:11:36.130Z,16.96
2023-05-09T06:13:36.101Z,16.98
2023-05-09T06:15:36.203Z,17.00
2023-05-09T06:18:36.138Z,17.02
2023-05-09T06:19:36.193Z,17.03
2023-05-09T06:20:36.140Z,17.06
2023-05-09T06:22:36.197Z,17.08
2023-05-09T06:23:36.119Z,17.07
2023-05-09T06:24:36.694Z,17.06
2023-05-09T06:25:36.200Z,17.07
2023-05-09T06:26:36.232Z,17.10
2023-05-09T06:27:36.198Z,17.13
2023-05-09T06:28:36.188Z,17.16
2023-05-09T06:29:36.195Z,17.19
2023-05-09T06:30:39.272Z,17.20
2023-05-09T06:31:36.209Z,17.24
2023-05-09T06:32:36.249Z,17.28
2023-05-09T06:33:36.197Z,17.31
2023-05-09T06:34:36.198Z,17.35
2023-05-09T06:35:36.182Z,17.40
2023-05-09T06:36:36.234Z,17.43
2023-05-09T06:37:36.215Z,17.46
2023-05-09T06:38:36.247Z,17.48
2023-05-09T06:39:36.366Z,17.49
2023-05-09T06:40:36.233Z,17.51
2023-05-09T06:41:36.240Z,17.55
2023-05-09T06:42:36.228Z,17.60
2023-05-09T06:43:36.231Z,17.62
2023-05-09T06:44:36.174Z,17.58
2023-05-09T06:45:36.296Z,17.53
2023-05-09T06:46:36.287Z,17.48
2023-05-09T06:47:36.258Z,17.47
2023-05-09T06:48:36.226Z,17.48
2023-05-09T06:49:36.215Z,17.45
2023-05-09T06:50:36.244Z,17.37
2023-05-09T06:51:36.262Z,17.38
2023-05-09T06:52:36.229Z,17.43
2023-05-09T06:53:36.258Z,17.49
2023-05-09T06:54:36.248Z,17.48
2023-05-09T06:55:36.226Z,17.51
2023-05-09T06:56:36.273Z,17.57
2023-05-09T06:57:36.233Z,17.62
2023-05-09T06:58:36.301Z,17.68
2023-05-09T06:59:36.243Z,17.75
2023-05-09T07:00:36.222Z,17.83
2023-05-09T07:01:36.291Z,17.92
2023-05-09T07:02:36.378Z,17.98
2023-05-09T07:03:36.325Z,18.04
2023-05-09T07:04:36.298Z,18.08
2023-05-09T07:05:36.259Z,18.12
2023-05-09T07:06:36.297Z,18.14
2023-05-09T07:07:39.630Z,18.16
2023-05-09T07:08:36.290Z,18.20
2023-05-09T07:09:36.263Z,18.22
2023-05-09T07:10:36.274Z,18.25
2023-05-09T07:11:36.294Z,18.27
2023-05-09T07:12:36.314Z,18.30
2023-05-09T07:14:36.293Z,18.29
2023-05-09T07:15:42.058Z,18.27
2023-05-09T07:16:37.572Z,18.21
2023-05-09T07:17:36.332Z,18.23
2023-05-09T07:18:36.298Z,18.28
2023-05-09T07:19:36.345Z,18.35
2023-05-09T07:20:36.432Z,18.42
2023-05-09T07:21:36.338Z,18.47
2023-05-09T07:22:37.307Z,18.48
2023-05-09T07:23:36.287Z,18.52
2023-05-09T07:24:36.316Z,18.57
2023-05-09T07:25:36.375Z,18.64
2023-05-09T07:26:36.341Z,18.62
2023-05-09T07:27:36.351Z,18.49
2023-05-09T07:28:36.364Z,18.48
2023-05-09T07:29:36.344Z,18.59
2023-05-09T07:30:36.340Z,18.69
2023-05-09T07:31:37.567Z,18.79
2023-05-09T07:32:36.361Z,18.87
2023-05-09T07:33:36.352Z,18.84
2023-05-09T07:34:36.384Z,18.81
2023-05-09T07:35:36.377Z,18.83
2023-05-09T07:37:36.398Z,18.68
2023-05-09T07:38:36.372Z,18.69
2023-05-09T07:39:36.386Z,18.75
2023-05-09T07:40:36.380Z,18.81
2023-05-09T07:41:36.317Z,18.88
2023-05-09T07:42:36.393Z,18.93
2023-05-09T07:43:36.367Z,18.97
2023-05-09T07:44:39.927Z,19.02
2023-05-09T07:45:36.525Z,19.07
2023-05-09T07:46:36.402Z,19.12
2023-05-09T07:47:36.386Z,19.18
2023-05-09T07:48:36.411Z,19.24
2023-05-09T07:49:36.371Z,19.29
2023-05-09T07:50:36.408Z,19.35
2023-05-09T07:51:36.443Z,19.36
2023-05-09T07:52:36.388Z,19.32
2023-05-09T07:53:36.413Z,19.29
2023-05-09T07:54:36.392Z,19.27
2023-05-09T07:55:36.432Z,19.28
2023-05-09T07:57:36.392Z,19.27
2023-05-09T07:58:36.433Z,19.30
2023-05-09T07:59:36.412Z,19.32
2023-05-09T08:00:36.433Z,19.34
2023-05-09T08:01:36.423Z,19.25
2023-05-09T08:03:36.509Z,19.24
2023-05-09T08:04:36.544Z,19.26
2023-05-09T08:05:36.408Z,19.32
2023-05-09T08:06:36.435Z,19.42
2023-05-09T08:07:36.428Z,19.50
2023-05-09T08:08:38.798Z,19.58
2023-05-09T08:09:36.470Z,19.65
2023-05-09T08:10:36.417Z,19.69
2023-05-09T08:11:36.450Z,19.74
2023-05-09T08:12:36.477Z,19.77
2023-05-09T08:13:36.460Z,19.81
2023-05-09T08:14:36.483Z,19.86
2023-05-09T08:15:36.518Z,19.89
2023-05-09T08:16:36.545Z,19.93
2023-05-09T08:17:36.535Z,19.98
2023-05-09T08:18:36.449Z,20.03
2023-05-09T08:19:36.480Z,20.07
2023-05-09T08:20:36.494Z,20.11
2023-05-09T08:21:40.235Z,20.13
2023-05-09T08:22:36.480Z,20.14
2023-05-09T08:23:36.437Z,20.12
2023-05-09T08:24:36.494Z,20.06
2023-05-09T08:25:36.487Z,20.03
2023-05-09T08:26:36.527Z,19.97
2023-05-09T08:27:36.534Z,19.84
2023-05-09T08:28:36.470Z,19.71
2023-05-09T08:29:36.500Z,19.68
2023-05-09T08:30:36.517Z,19.67
2023-05-09T08:31:36.477Z,19.64
2023-05-09T08:32:36.524Z,19.69
2023-05-09T08:33:36.513Z,19.72
2023-05-09T08:34:36.542Z,19.68
2023-05-09T08:35:36.496Z,19.73
2023-05-09T08:36:36.461Z,19.81
2023-05-09T08:37:36.491Z,19.89
2023-05-09T08:38:36.522Z,19.97
2023-05-09T08:39:36.529Z,20.07
2023-05-09T08:40:36.524Z,20.16
2023-05-09T08:41:36.532Z,20.28
2023-05-09T08:42:36.554Z,20.40
2023-05-09T08:43:36.535Z,20.50
2023-05-09T08:44:36.479Z,20.59
2023-05-09T08:45:36.522Z,20.68
2023-05-09T08:46:36.592Z,20.76
2023-05-09T08:47:36.548Z,20.82
2023-05-09T08:48:36.562Z,20.90
2023-05-09T08:49:36.496Z,21.05
2023-05-09T08:50:36.535Z,21.17
2023-05-09T08:51:36.570Z,21.26
2023-05-09T08:52:36.540Z,21.35
2023-05-09T08:53:36.542Z,21.49
2023-05-09T08:54:36.557Z,21.68
2023-05-09T08:55:36.566Z,21.89
2023-05-09T08:56:36.561Z,22.11
2023-05-09T08:57:36.527Z,22.27
2023-05-09T08:58:40.545Z,22.38
2023-05-09T08:59:36.557Z,22.41
2023-05-09T09:00:36.555Z,22.45
2023-05-09T09:02:36.556Z,22.43
2023-05-09T09:03:36.565Z,22.45
2023-05-09T09:04:36.699Z,22.51
2023-05-09T09:05:41.896Z,22.53
2023-05-09T09:07:36.599Z,22.51
2023-05-09T09:08:36.613Z,22.48
2023-05-09T09:09:36.603Z,22.27
2023-05-09T09:10:36.572Z,22.11
2023-05-09T09:11:36.620Z,22.02
2023-05-09T09:12:36.625Z,21.90
2023-05-09T09:14:36.592Z,21.88
2023-05-09T09:15:36.582Z,21.93
2023-05-09T09:16:36.638Z,21.99
2023-05-09T09:17:36.663Z,22.05
2023-05-09T09:18:37.781Z,22.09
2023-05-09T09:19:36.648Z,22.12
2023-05-09T09:20:36.617Z,22.13
2023-05-09T09:21:36.646Z,22.12
2023-05-09T09:22:36.633Z,22.14
2023-05-09T09:23:36.589Z,22.27
2023-05-09T09:24:36.623Z,22.37
2023-05-09T09:25:36.639Z,22.48
2023-05-09T09:26:36.653Z,22.57
2023-05-09T09:27:36.623Z,22.73
2023-05-09T09:28:36.603Z,22.89
2023-05-09T09:29:36.636Z,23.08
2023-05-09T09:30:36.645Z,23.01
2023-05-09T09:32:36.705Z,22.91
2023-05-09T09:33:36.653Z,22.82
2023-05-09T09:34:36.650Z,22.79
2023-05-09T09:35:40.893Z,22.88
2023-05-09T09:36:36.774Z,23.06
2023-05-09T09:37:36.664Z,23.18
2023-05-09T09:38:36.706Z,23.34
2023-05-09T09:39:36.710Z,23.50
2023-05-09T09:40:36.651Z,23.64
2023-05-09T09:41:36.639Z,23.72
2023-05-09T09:42:36.675Z,23.80
2023-05-09T09:43:36.689Z,23.87
2023-05-09T09:44:36.663Z,23.88
2023-05-09T09:45:36.758Z,23.90
2023-05-09T09:46:36.841Z,23.91
2023-05-09T09:47:36.718Z,23.92
2023-05-09T09:48:36.716Z,23.89
2023-05-09T09:49:36.704Z,23.85
2023-05-09T09:50:36.710Z,23.79
2023-05-09T09:51:36.724Z,23.66
2023-05-09T09:52:36.721Z,23.56
2023-05-09T09:53:36.721Z,23.46
2023-05-09T09:54:36.693Z,23.44
2023-05-09T09:55:36.708Z,23.38
2023-05-09T09:56:36.720Z,23.40
2023-05-09T09:57:36.707Z,23.45
2023-05-09T09:58:36.719Z,23.47
2023-05-09T09:59:36.717Z,23.58
2023-05-09T10:00:36.746Z,23.70
2023-05-09T10:01:36.768Z,23.73
2023-05-09T10:02:36.719Z,23.76
2023-05-09T10:03:36.772Z,23.86
2023-05-09T10:04:36.893Z,23.81
2023-05-09T10:05:36.722Z,23.78
2023-05-09T10:06:36.723Z,23.88
2023-05-09T10:07:36.757Z,23.98
2023-05-09T10:08:36.759Z,24.10
2023-05-09T10:09:36.766Z,24.23
2023-05-09T10:10:36.782Z,24.35
2023-05-09T10:11:36.748Z,24.49
2023-05-09T10:12:41.187Z,24.66
2023-05-09T10:13:36.776Z,24.75
2023-05-09T10:14:36.727Z,24.78
2023-05-09T10:15:49.334Z,24.56
2023-05-09T10:16:43.857Z,24.19
2023-05-09T10:17:36.982Z,23.97
2023-05-09T10:18:37.119Z,23.90
2023-05-09T10:19:36.760Z,23.92
2023-05-09T10:20:36.752Z,23.98
2023-05-09T10:21:38.004Z,24.03
2023-05-09T10:22:36.797Z,24.07
2023-05-09T10:23:36.807Z,23.91
2023-05-09T10:24:36.833Z,23.77
2023-05-09T10:25:36.749Z,23.69
2023-05-09T10:26:36.782Z,23.53
2023-05-09T10:27:36.776Z,23.48
2023-05-09T10:28:36.776Z,23.57
2023-05-09T10:29:36.823Z,23.62
2023-05-09T10:31:36.833Z,23.68
2023-05-09T10:32:36.827Z,23.82
2023-05-09T10:33:36.797Z,23.72
2023-05-09T10:34:36.838Z,23.59
2023-05-09T10:35:36.847Z,23.64
2023-05-09T10:36:36.826Z,23.79
2023-05-09T10:37:36.850Z,23.78
2023-05-09T10:38:36.827Z,23.75
2023-05-09T10:39:36.820Z,23.84
2023-05-09T10:40:36.823Z,23.90
2023-05-09T10:42:36.813Z,23.95
2023-05-09T10:43:36.999Z,23.97
2023-05-09T10:44:36.850Z,24.03
2023-05-09T10:45:36.854Z,24.16
2023-05-09T10:46:36.826Z,24.13
2023-05-09T10:47:36.887Z,24.12
2023-05-09T10:48:36.894Z,24.23
2023-05-09T10:49:41.436Z,24.32
2023-05-09T10:50:36.790Z,24.24
2023-05-09T10:51:36.836Z,24.19
2023-05-09T10:52:36.884Z,24.28
2023-05-09T10:53:36.888Z,24.41
2023-05-09T10:54:36.843Z,24.55
2023-05-09T10:55:36.889Z,24.61
2023-05-09T10:56:36.838Z,24.62
2023-05-09T10:57:36.865Z,24.69
2023-05-09T10:58:36.857Z,24.71
2023-05-09T10:59:36.847Z,24.73
2023-05-09T11:00:36.867Z,24.79
2023-05-09T11:01:37.000Z,24.87
2023-05-09T11:02:36.882Z,24.99
2023-05-09T11:03:37.106Z,25.10
2023-05-09T11:04:36.844Z,25.15
2023-05-09T11:05:36.888Z,25.21
2023-05-09T11:06:36.888Z,25.24
2023-05-09T11:07:36.846Z,25.28
2023-05-09T11:08:36.876Z,25.29
2023-05-09T11:09:36.897Z,25.31
2023-05-09T11:10:36.901Z,25.34
2023-05-09T11:11:36.871Z,25.36
2023-05-09T11:12:36.891Z,25.37
2023-05-09T11:13:36.926Z,25.38
2023-05-09T11:14:36.897Z,25.27
2023-05-09T11:15:36.877Z,25.13
2023-05-09T11:16:37.027Z,25.04
2023-05-09T11:17:36.917Z,25.00
2023-05-09T11:18:36.937Z,24.99
2023-05-09T11:19:36.934Z,25.04
2023-05-09T11:20:36.928Z,25.09
2023-05-09T11:21:36.954Z,25.15
2023-05-09T11:22:36.964Z,25.19
2023-05-09T11:23:36.908Z,25.21
2023-05-09T11:24:36.958Z,25.24
2023-05-09T11:25:36.932Z,25.27
2023-05-09T11:26:41.764Z,25.29
2023-05-09T11:27:36.953Z,25.32
2023-05-09T11:28:36.934Z,25.36
2023-05-09T11:29:36.963Z,25.40
2023-05-09T11:30:36.958Z,25.38
2023-05-09T11:32:36.994Z,25.36
2023-05-09T11:34:36.998Z,25.38
2023-05-09T11:35:36.964Z,25.43
2023-05-09T11:36:36.961Z,25.47
2023-05-09T11:37:36.989Z,25.50
2023-05-09T11:38:36.926Z,25.52
2023-05-09T11:39:36.998Z,25.54
2023-05-09T11:40:36.976Z,25.53
2023-05-09T11:41:36.963Z,25.47
2023-05-09T11:42:37.008Z,25.20
2023-05-09T11:43:36.952Z,25.06
2023-05-09T11:44:36.988Z,24.98
2023-05-09T11:46:36.999Z,25.00
2023-05-09T11:47:37.035Z,24.99
2023-05-09T11:48:37.019Z,24.92
2023-05-09T11:49:36.996Z,24.83
2023-05-09T11:50:36.999Z,24.76
2023-05-09T11:51:36.990Z,24.77
2023-05-09T11:52:37.020Z,24.83
2023-05-09T11:53:37.056Z,24.92
2023-05-09T11:54:37.037Z,25.03
2023-05-09T11:55:37.028Z,25.13
2023-05-09T11:56:36.989Z,25.23
2023-05-09T11:57:36.991Z,25.30
2023-05-09T11:58:37.018Z,25.32
2023-05-09T11:59:37.036Z,25.39
2023-05-09T12:00:37.060Z,25.43
2023-05-09T12:01:37.002Z,25.48
2023-05-09T12:02:37.190Z,25.52
2023-05-09T12:03:42.172Z,25.56
2023-05-09T12:05:37.025Z,25.58
2023-05-09T12:06:37.045Z,25.61
2023-05-09T12:07:37.049Z,25.62
2023-05-09T12:08:37.038Z,25.63
2023-05-09T12:09:37.025Z,25.62
2023-05-09T12:10:37.020Z,25.61
2023-05-09T12:11:37.067Z,25.60
2023-05-09T12:12:37.022Z,25.59
2023-05-09T12:15:37.986Z,25.60
2023-05-09T12:16:37.103Z,25.58
2023-05-09T12:17:37.098Z,25.49
2023-05-09T12:18:37.090Z,25.46
2023-05-09T12:20:37.104Z,25.49
2023-05-09T12:21:37.120Z,25.50
2023-05-09T12:22:37.044Z,25.52
2023-05-09T12:23:37.091Z,25.55
2023-05-09T12:24:37.084Z,25.57
2023-05-09T12:25:37.054Z,25.58
2023-05-09T12:26:37.087Z,25.57
2023-05-09T12:27:37.086Z,25.47
2023-05-09T12:28:37.114Z,25.42
2023-05-09T12:30:37.065Z,25.43
2023-05-09T12:31:37.134Z,25.46
2023-05-09T12:32:37.120Z,25.50
2023-05-09T12:33:37.132Z,25.54
2023-05-09T12:34:37.244Z,25.55
2023-05-09T12:35:37.079Z,25.51
2023-05-09T12:36:37.164Z,25.43
2023-05-09T12:37:37.374Z,25.39
2023-05-09T12:38:37.118Z,25.38
2023-05-09T12:39:37.130Z,25.39
2023-05-09T12:40:37.156Z,25.40
2023-05-09T12:41:43.944Z,25.42
2023-05-09T12:42:37.148Z,25.43
2023-05-09T12:43:37.134Z,25.40
2023-05-09T12:44:37.149Z,25.37
2023-05-09T12:45:37.138Z,25.36
2023-05-09T12:46:37.679Z,25.29
2023-05-09T12:47:37.206Z,25.28
2023-05-09T12:48:37.112Z,25.32
2023-05-09T12:49:37.170Z,25.35
2023-05-09T12:50:37.179Z,25.34
2023-05-09T12:52:41.726Z,25.36
2023-05-09T12:53:37.149Z,25.38
2023-05-09T12:54:37.174Z,25.42
2023-05-09T12:55:37.198Z,25.43
2023-05-09T12:58:37.210Z,25.41
2023-05-09T12:59:37.143Z,25.38
2023-05-09T13:00:37.196Z,25.39
2023-05-09T13:01:37.180Z,25.36
2023-05-09T13:02:37.270Z,25.38
2023-05-09T13:03:37.240Z,25.42
2023-05-09T13:04:37.172Z,25.38
2023-05-09T13:05:37.180Z,25.29
2023-05-09T13:06:37.205Z,25.32
2023-05-09T13:07:37.208Z,25.40
2023-05-09T13:08:37.228Z,25.47
2023-05-09T13:09:37.178Z,25.53
2023-05-09T13:10:37.211Z,25.58
2023-05-09T13:11:37.227Z,25.60
2023-05-09T13:12:37.223Z,25.64
2023-05-09T13:13:37.164Z,25.60
2023-05-09T13:14:37.768Z,25.50
2023-05-09T13:15:37.235Z,25.48
2023-05-09T13:16:37.223Z,25.51
2023-05-09T13:17:37.243Z,25.53
2023-05-09T13:18:37.251Z,25.57
2023-05-09T13:19:37.239Z,25.62
2023-05-09T13:20:37.219Z,25.60
2023-05-09T13:22:37.248Z,25.59
2023-05-09T13:23:37.269Z,25.61
2023-05-09T13:24:37.250Z,25.63
2023-05-09T13:25:37.221Z,25.66
2023-05-09T13:26:37.231Z,25.68
2023-05-09T13:27:37.196Z,25.67
2023-05-09T13:28:37.212Z,25.65
2023-05-09T13:31:37.237Z,25.67
2023-05-09T13:32:37.413Z,25.68
2023-05-09T13:33:37.312Z,25.69
2023-05-09T13:34:37.221Z,25.67
2023-05-09T13:35:37.257Z,25.59
2023-05-09T13:36:37.298Z,25.58
2023-05-09T13:37:37.305Z,25.59
2023-05-09T13:38:37.327Z,25.60
2023-05-09T13:39:37.272Z,25.61
2023-05-09T13:42:37.238Z,25.64
2023-05-09T13:43:37.263Z,25.66
2023-05-09T13:44:37.333Z,25.65
2023-05-09T13:45:37.332Z,25.64
2023-05-09T13:46:37.351Z,25.62
2023-05-09T13:47:38.759Z,25.60
2023-05-09T13:50:37.366Z,25.59
2023-05-09T13:51:38.016Z,25.57
2023-05-09T13:52:37.348Z,25.52
2023-05-09T13:53:38.878Z,25.49
2023-05-09T13:54:37.361Z,25.46
2023-05-09T13:55:37.319Z,25.42
2023-05-09T13:56:37.307Z,25.39
2023-05-09T13:57:37.307Z,25.37
2023-05-09T13:58:37.378Z,25.38
2023-05-09T14:00:37.364Z,25.35
2023-05-09T14:01:37.346Z,25.32
2023-05-09T14:02:37.445Z,25.24
2023-05-09T14:03:37.376Z,25.17
2023-05-09T14:04:37.293Z,25.14
2023-05-09T14:05:37.399Z,25.06
2023-05-09T14:06:37.337Z,25.02
2023-05-09T14:10:37.386Z,25.03
2023-05-09T14:11:37.371Z,24.97
2023-05-09T14:12:37.391Z,24.89
2023-05-09T14:13:37.406Z,24.82
2023-05-09T14:14:37.372Z,24.75
2023-05-09T14:15:37.417Z,24.71
2023-05-09T14:16:37.424Z,24.68
2023-05-09T14:18:37.402Z,24.67
2023-05-09T14:19:37.377Z,24.64
2023-05-09T14:20:37.366Z,24.57
2023-05-09T14:21:37.432Z,24.47
2023-05-09T14:22:37.430Z,24.39
2023-05-09T14:23:37.445Z,24.35
2023-05-09T14:24:37.381Z,24.34
2023-05-09T14:27:37.403Z,24.35
2023-05-09T14:29:39.232Z,24.34
2023-05-09T14:30:37.413Z,24.33
2023-05-09T14:31:37.470Z,24.34
2023-05-09T14:32:37.424Z,24.35
2023-05-09T14:33:37.463Z,24.33
2023-05-09T14:34:37.478Z,24.19
2023-05-09T14:35:40.431Z,23.99
2023-05-09T14:36:37.435Z,23.88
2023-05-09T14:37:37.435Z,23.85
2023-05-09T14:38:37.468Z,23.86
2023-05-09T14:39:37.473Z,23.89
2023-05-09T14:40:37.464Z,23.92
2023-05-09T14:41:37.478Z,23.94